createdAt,value
2018-12-22T00:01:58.652Z,97.50
2018-12-22T00:04:31.305Z,97.60
2018-12-22T00:07:03.976Z,97.70
2018-12-22T00:09:36.480Z,97.80
2018-12-22T00:12:08.632Z,97.80
2018-12-22T00:14:41.450Z,98.00
2018-12-22T00:17:11.696Z,98.00
2018-12-22T00:19:43.779Z,98.10
2018-12-22T00:22:15.601Z,98.00
2018-12-22T00:24:47.823Z,98.10
2018-12-22T00:27:20.792Z,98.00
2018-12-22T00:29:52.876Z,98.10
2018-12-22T00:32:27.296Z,98.00
2018-12-22T00:34:57.833Z,98.20
2018-12-22T00:37:30.052Z,97.90
2018-12-22T00:40:02.110Z,97.90
2018-12-22T00:42:34.038Z,97.90
2018-12-22T00:45:09.333Z,97.90
2018-12-22T00:47:44.512Z,98.10
2018-12-22T00:50:16.971Z,98.10
2018-12-22T00:52:49.743Z,98.10
2018-12-22T00:55:21.729Z,98.10
2018-12-22T00:57:54.638Z,98.00
2018-12-22T01:00:28.054Z,98.20
2018-12-22T01:03:00.776Z,97.90
2018-12-22T01:05:33.712Z,97.90
2018-12-22T01:08:05.891Z,98.00
2018-12-22T01:10:36.761Z,98.00
2018-12-22T01:13:09.829Z,98.10
2018-12-22T01:15:42.770Z,98.10
2018-12-22T01:18:15.658Z,98.10
2018-12-22T01:20:46.891Z,98.00
2018-12-22T01:23:19.280Z,98.10
2018-12-22T01:25:51.197Z,98.10
2018-12-22T01:28:23.523Z,98.00
2018-12-22T01:30:56.533Z,98.10
2018-12-22T01:33:27.560Z,98.00
2018-12-22T01:36:00.332Z,98.00
2018-12-22T01:38:33.175Z,98.00
2018-12-22T01:41:06.215Z,98.10
2018-12-22T01:43:37.171Z,98.00
2018-12-22T01:46:09.939Z,98.00
2018-12-22T01:48:42.371Z,97.90
2018-12-22T01:51:14.892Z,97.90
2018-12-22T01:53:46.452Z,97.90
2018-12-22T01:56:22.410Z,97.80
2018-12-22T01:58:53.649Z,97.90
2018-12-22T02:01:26.136Z,97.90
2018-12-22T02:03:58.015Z,97.60
2018-12-22T02:06:30.224Z,97.70
2018-12-22T02:09:02.328Z,97.70
2018-12-22T02:11:34.554Z,97.90
2018-12-22T02:14:05.004Z,97.90
2018-12-22T02:16:35.150Z,98.00
2018-12-22T02:19:08.008Z,98.20
2018-12-22T02:21:41.210Z,98.30
2018-12-22T02:24:11.846Z,98.10
2018-12-22T02:26:46.063Z,98.20
2018-12-22T02:29:18.852Z,98.20
2018-12-22T02:31:50.901Z,98.20
2018-12-22T02:34:23.946Z,98.10
2018-12-22T02:36:55.870Z,98.00
2018-12-22T02:39:28.872Z,98.20
2018-12-22T02:42:02.404Z,98.10
2018-12-22T02:44:32.785Z,98.00
2018-12-22T02:47:05.268Z,97.90
2018-12-22T02:49:37.094Z,97.90
2018-12-22T02:52:09.080Z,97.70
2018-12-22T02:54:41.120Z,97.90
2018-12-22T02:57:15.444Z,97.80
2018-12-22T02:59:48.324Z,97.80
2018-12-22T03:02:20.854Z,97.70
2018-12-22T03:04:52.952Z,97.80
2018-12-22T03:07:25.014Z,97.90
2018-12-22T03:10:00.143Z,97.80
2018-12-22T03:12:32.762Z,97.90
2018-12-22T03:15:02.992Z,97.90
2018-12-22T03:17:35.621Z,97.90
2018-12-22T03:20:07.815Z,98.00
2018-12-22T03:22:39.869Z,98.00
2018-12-22T03:25:12.644Z,98.10
2018-12-22T03:27:42.394Z,98.10
2018-12-22T03:30:14.602Z,98.10
2018-12-22T03:32:47.304Z,98.30
2018-12-22T03:35:19.476Z,98.30
2018-12-22T03:37:52.480Z,98.40
2018-12-22T03:40:24.502Z,98.50
2018-12-22T03:42:56.752Z,98.60
2018-12-22T03:45:29.444Z,98.90
2018-12-22T03:48:01.516Z,99.30
2018-12-22T03:50:32.116Z,99.80
2018-12-22T03:53:04.252Z,99.90
2018-12-22T03:55:37.080Z,99.90
2018-12-22T03:58:09.364Z,99.90
2018-12-22T04:00:41.480Z,99.90
2018-12-22T04:03:13.608Z,99.90
2018-12-22T04:05:45.607Z,99.90
2018-12-22T04:08:16.409Z,99.90
2018-12-22T04:10:48.608Z,99.90
2018-12-22T04:13:20.616Z,99.90
2018-12-22T04:15:52.728Z,99.90
2018-12-22T04:18:24.536Z,99.90
2018-12-22T04:20:56.528Z,99.90
2018-12-22T04:23:28.789Z,99.90
2018-12-22T04:26:00.724Z,99.90
2018-12-22T04:28:32.845Z,99.90
2018-12-22T04:31:03.002Z,99.90
2018-12-22T04:33:36.173Z,99.90
2018-12-22T04:36:10.749Z,99.90
2018-12-22T04:38:41.316Z,99.90
2018-12-22T04:41:13.490Z,99.90
2018-12-22T04:43:43.344Z,99.90
2018-12-22T04:46:15.623Z,99.90
2018-12-22T04:48:48.300Z,99.90
2018-12-22T04:51:20.324Z,99.90
2018-12-22T04:53:52.276Z,99.90
2018-12-22T04:56:24.531Z,99.90
2018-12-22T04:58:56.490Z,99.90
2018-12-22T05:01:28.647Z,99.90
2018-12-22T05:04:00.510Z,99.90
2018-12-22T05:06:32.875Z,99.90
2018-12-22T05:09:07.862Z,99.90
2018-12-22T05:11:40.023Z,99.90
2018-12-22T05:14:12.135Z,99.90
2018-12-22T05:16:44.949Z,99.90
2018-12-22T05:19:17.003Z,99.90
2018-12-22T05:21:49.027Z,99.90
2018-12-22T05:24:21.244Z,99.90
2018-12-22T05:26:55.647Z,99.90
2018-12-22T05:29:28.002Z,99.90
2018-12-22T05:32:00.355Z,99.90
2018-12-22T05:34:32.884Z,99.90
2018-12-22T05:37:07.269Z,99.90
2018-12-22T05:39:39.972Z,99.90
2018-12-22T05:42:10.281Z,99.90
2018-12-22T05:44:41.062Z,99.70
2018-12-22T05:47:13.360Z,99.80
2018-12-22T05:49:43.862Z,99.90
2018-12-22T05:52:15.959Z,99.90
2018-12-22T05:57:15.576Z,99.90
2018-12-22T05:59:48.513Z,99.90
2018-12-22T06:02:21.220Z,99.90
2018-12-22T06:04:53.293Z,99.90
2018-12-22T06:07:26.390Z,99.90
2018-12-22T06:09:58.236Z,99.90
2018-12-22T06:12:30.292Z,99.90
2018-12-22T06:15:02.305Z,99.80
2018-12-22T06:17:34.200Z,99.90
2018-12-22T06:20:08.395Z,99.70
2018-12-22T06:22:40.593Z,99.70
2018-12-22T06:25:12.712Z,99.70
2018-12-22T06:27:44.762Z,99.70
2018-12-22T06:30:16.789Z,99.60
2018-12-22T06:32:51.349Z,99.60
2018-12-22T06:35:24.326Z,99.50
2018-12-22T06:37:54.447Z,99.30
2018-12-22T06:40:25.125Z,99.30
2018-12-22T06:42:57.144Z,99.30
2018-12-22T06:45:30.404Z,99.20
2018-12-22T06:48:02.230Z,99.00
2018-12-22T06:50:34.524Z,99.00
2018-12-22T06:53:06.583Z,98.90
2018-12-22T06:55:38.895Z,98.90
2018-12-22T06:58:13.181Z,99.40
2018-12-22T07:00:45.698Z,99.50
2018-12-22T07:03:20.588Z,99.90
2018-12-22T07:05:51.201Z,99.90
2018-12-22T07:08:23.395Z,99.90
2018-12-22T07:10:56.044Z,99.90
2018-12-22T07:13:27.938Z,99.90
2018-12-22T07:16:00.206Z,99.90
2018-12-22T07:18:33.003Z,99.90
2018-12-22T07:21:03.782Z,99.90
2018-12-22T07:23:35.967Z,99.90
2018-12-22T07:26:08.492Z,99.90
2018-12-22T07:28:40.485Z,99.90
2018-12-22T07:31:12.333Z,99.90
2018-12-22T07:33:44.597Z,99.90
2018-12-22T07:36:16.592Z,99.90
2018-12-22T07:38:49.361Z,99.90
2018-12-22T07:41:20.243Z,99.90
2018-12-22T07:43:52.932Z,99.90
2018-12-22T07:46:25.036Z,99.90
2018-12-22T07:48:56.934Z,99.90
2018-12-22T07:51:29.109Z,99.90
2018-12-22T07:54:01.321Z,99.90
2018-12-22T07:56:33.276Z,99.90
2018-12-22T07:59:03.668Z,99.90
2018-12-22T08:01:35.843Z,99.90
2018-12-22T08:04:06.687Z,99.90
2018-12-22T08:06:38.589Z,99.90
2018-12-22T08:09:09.080Z,99.90
2018-12-22T08:11:41.800Z,99.90
2018-12-22T08:14:13.888Z,99.90
2018-12-22T08:16:43.856Z,99.90
2018-12-22T08:19:16.850Z,99.90
2018-12-22T08:21:52.033Z,99.90
2018-12-22T08:24:24.149Z,99.90
2018-12-22T08:26:56.832Z,99.90
2018-12-22T08:29:28.792Z,99.90
2018-12-22T08:32:00.896Z,99.90
2018-12-22T08:34:31.599Z,99.90
2018-12-22T08:37:03.563Z,99.90
2018-12-22T08:39:35.714Z,99.90
2018-12-22T08:42:08.088Z,99.90
2018-12-22T08:44:39.957Z,99.90
2018-12-22T08:47:15.027Z,99.90
2018-12-22T08:49:47.696Z,99.90
2018-12-22T08:52:19.803Z,99.90
2018-12-22T08:54:51.811Z,99.90
2018-12-22T08:57:24.029Z,99.90
2018-12-22T08:59:56.935Z,99.90
2018-12-22T09:02:29.932Z,99.90
2018-12-22T09:05:03.686Z,99.90
2018-12-22T09:07:33.519Z,99.90
2018-12-22T09:10:04.028Z,99.90
2018-12-22T09:12:36.968Z,99.90
2018-12-22T09:15:09.338Z,99.90
2018-12-22T09:17:42.048Z,99.90
2018-12-22T09:20:14.242Z,99.90
2018-12-22T09:22:46.223Z,99.90
2018-12-22T09:25:18.149Z,99.90
2018-12-22T09:27:50.308Z,99.90
2018-12-22T09:30:22.113Z,99.90
2018-12-22T09:32:54.203Z,99.90
2018-12-22T09:35:26.081Z,99.90
2018-12-22T09:37:58.434Z,99.90
2018-12-22T09:40:31.071Z,99.90
2018-12-22T09:43:05.453Z,99.90
2018-12-22T09:45:37.253Z,99.90
2018-12-22T09:48:09.150Z,99.90
2018-12-22T09:50:41.136Z,99.90
2018-12-22T09:53:11.763Z,99.90
2018-12-22T09:55:42.539Z,99.90
2018-12-22T09:58:15.344Z,99.90
2018-12-22T10:00:47.389Z,99.90
2018-12-22T10:03:19.443Z,99.90
2018-12-22T10:05:51.423Z,99.90
2018-12-22T10:08:24.197Z,99.90
2018-12-22T10:10:54.990Z,99.90
2018-12-22T10:13:26.961Z,99.90
2018-12-22T10:15:57.308Z,99.90
2018-12-22T10:18:29.364Z,99.90
2018-12-22T10:21:02.128Z,99.90
2018-12-22T10:23:34.152Z,99.90
2018-12-22T10:26:06.132Z,99.90
2018-12-22T10:28:39.647Z,99.90
2018-12-22T10:31:17.941Z,99.90
2018-12-22T10:33:46.230Z,99.90
2018-12-22T10:36:17.107Z,99.90
2018-12-22T10:38:49.326Z,99.90
2018-12-22T10:41:20.252Z,99.90
2018-12-22T10:43:52.704Z,99.90
2018-12-22T10:46:25.551Z,99.90
2018-12-22T10:48:57.647Z,99.90
2018-12-22T10:51:29.909Z,99.90
2018-12-22T10:54:02.257Z,99.90
2018-12-22T10:56:35.043Z,99.90
2018-12-22T10:59:07.185Z,99.90
2018-12-22T11:01:39.244Z,99.90
2018-12-22T11:04:11.125Z,99.90
2018-12-22T11:06:43.132Z,99.90
2018-12-22T11:09:16.441Z,99.90
2018-12-22T11:11:49.188Z,99.90
2018-12-22T11:14:21.553Z,99.90
2018-12-22T11:16:53.436Z,99.90
2018-12-22T11:19:27.856Z,99.90
2018-12-22T11:22:00.459Z,99.90
2018-12-22T11:24:32.719Z,99.90
2018-12-22T11:27:05.073Z,99.90
2018-12-22T11:29:35.516Z,99.90
2018-12-22T11:32:07.503Z,99.90
2018-12-22T11:34:38.393Z,99.90
2018-12-22T11:37:09.108Z,99.90
2018-12-22T11:39:41.365Z,99.90
2018-12-22T11:42:13.384Z,99.90
2018-12-22T11:44:45.677Z,99.90
2018-12-22T11:47:26.988Z,99.90
2018-12-22T11:49:59.649Z,99.90
2018-12-22T11:52:31.687Z,99.90
2018-12-22T11:55:02.379Z,99.90
2018-12-22T11:57:39.100Z,99.90
2018-12-22T12:00:11.997Z,99.90
2018-12-22T12:02:42.342Z,99.90
2018-12-22T12:05:14.324Z,99.90
2018-12-22T12:07:46.361Z,99.90
2018-12-22T12:10:18.171Z,99.90
2018-12-22T12:12:50.352Z,99.90
2018-12-22T12:15:25.679Z,99.90
2018-12-22T12:18:09.841Z,99.90
2018-12-22T12:20:42.180Z,99.90
2018-12-22T12:23:13.021Z,99.90
2018-12-22T12:25:43.304Z,99.90
2018-12-22T12:28:16.260Z,99.90
2018-12-22T12:30:48.428Z,99.90
2018-12-22T12:33:19.247Z,99.90
2018-12-22T12:35:52.174Z,99.90
2018-12-22T12:38:22.934Z,99.90
2018-12-22T12:40:55.922Z,99.90
2018-12-22T12:43:27.974Z,99.90
2018-12-22T12:46:02.363Z,99.90
2018-12-22T12:48:31.296Z,99.90
2018-12-22T12:51:04.080Z,99.90
2018-12-22T12:53:36.749Z,99.90
2018-12-22T12:56:08.832Z,99.90
2018-12-22T12:58:43.029Z,99.90
2018-12-22T13:01:15.053Z,99.90
2018-12-22T13:03:50.020Z,99.90
2018-12-22T13:06:21.894Z,99.90
2018-12-22T13:08:55.276Z,99.90
2018-12-22T13:11:30.333Z,99.90
2018-12-22T13:14:07.878Z,99.90
2018-12-22T13:16:40.113Z,99.90
2018-12-22T13:19:14.653Z,99.90
2018-12-22T13:21:47.445Z,99.90
2018-12-22T13:24:18.438Z,99.80
2018-12-22T13:26:51.044Z,94.30
2018-12-22T13:29:20.072Z,95.80
2018-12-22T13:31:52.684Z,96.30
2018-12-22T13:34:22.568Z,95.30
2018-12-22T13:36:51.927Z,93.70
2018-12-22T13:39:29.012Z,95.20
2018-12-22T13:42:02.093Z,97.80
2018-12-22T13:44:32.835Z,97.00
2018-12-22T13:47:05.107Z,98.40
2018-12-22T13:52:32.509Z,98.90
2018-12-22T13:55:03.369Z,99.30
2018-12-22T13:57:36.082Z,99.90
2018-12-22T14:00:11.666Z,98.70
2018-12-22T14:02:44.199Z,99.80
2018-12-22T14:05:17.895Z,99.00
2018-12-22T14:07:50.127Z,99.90
2018-12-22T14:10:19.617Z,99.90
2018-12-22T14:12:51.613Z,99.90
2018-12-22T14:15:23.928Z,99.90
2018-12-22T14:18:16.083Z,99.70
2018-12-22T14:20:48.318Z,99.50
2018-12-22T14:23:19.696Z,99.90
2018-12-22T14:25:52.041Z,99.90
2018-12-22T14:28:26.359Z,99.90
2018-12-22T14:30:59.097Z,99.70
2018-12-22T14:33:31.051Z,99.90
2018-12-22T14:36:07.117Z,99.90
2018-12-22T14:38:39.232Z,99.90
2018-12-22T14:41:09.357Z,99.90
2018-12-22T14:43:41.492Z,99.90
2018-12-22T14:46:11.527Z,99.90
2018-12-22T14:48:44.371Z,99.90
2018-12-22T14:51:17.293Z,99.70
2018-12-22T14:53:47.837Z,99.90
2018-12-22T14:56:20.600Z,99.90
2018-12-22T14:58:52.684Z,99.70
2018-12-22T15:01:24.524Z,99.60
2018-12-22T15:03:56.784Z,99.30
2018-12-22T15:06:28.664Z,99.50
2018-12-22T15:09:00.709Z,99.20
2018-12-22T15:11:31.643Z,99.00
2018-12-22T15:14:03.670Z,99.10
2018-12-22T15:16:35.735Z,99.10
2018-12-22T15:19:07.682Z,99.50
2018-12-22T15:21:39.710Z,99.40
2018-12-22T15:24:12.261Z,99.70
2018-12-22T15:26:44.401Z,99.90
2018-12-22T15:29:15.161Z,99.70
2018-12-22T15:31:47.283Z,99.90
2018-12-22T15:34:20.141Z,99.90
2018-12-22T15:36:52.308Z,99.90
2018-12-22T15:39:24.596Z,99.90
2018-12-22T15:41:57.392Z,99.90
2018-12-22T15:44:29.965Z,99.90
2018-12-22T15:47:03.665Z,99.90
2018-12-22T15:49:34.002Z,99.90
2018-12-22T15:52:04.882Z,99.90
2018-12-22T15:54:37.261Z,99.90
2018-12-22T15:57:09.451Z,99.90
2018-12-22T15:59:42.396Z,99.90
2018-12-22T16:02:15.189Z,99.90
2018-12-22T16:04:47.295Z,99.90
2018-12-22T16:12:16.975Z,99.90
2018-12-22T16:14:49.278Z,99.90
2018-12-22T16:17:22.030Z,99.90
2018-12-22T16:19:53.000Z,99.90
2018-12-22T16:22:25.705Z,99.90
2018-12-22T16:24:58.015Z,99.90
2018-12-22T16:27:30.824Z,99.90
2018-12-22T16:30:00.657Z,99.90
2018-12-22T16:32:33.562Z,99.90
2018-12-22T16:35:07.107Z,99.90
2018-12-22T16:37:41.450Z,99.90
2018-12-22T16:40:16.884Z,99.90
2018-12-22T16:42:49.711Z,99.90
2018-12-22T16:45:20.459Z,99.90
2018-12-22T16:47:52.879Z,99.90
2018-12-22T16:50:23.913Z,99.90
2018-12-22T16:52:54.944Z,99.90
2018-12-22T16:55:27.744Z,99.90
2018-12-22T16:58:09.607Z,99.90
2018-12-22T17:00:50.243Z,99.90
2018-12-22T17:03:25.192Z,99.90
2018-12-22T17:05:59.852Z,99.90
2018-12-22T17:08:33.195Z,99.90
2018-12-22T17:11:05.462Z,99.90
2018-12-22T17:13:37.792Z,99.90
2018-12-22T17:16:10.877Z,99.90
2018-12-22T17:18:43.004Z,99.90
2018-12-22T17:21:23.701Z,99.90
2018-12-22T17:24:03.811Z,99.90
2018-12-22T17:26:36.245Z,99.90
2018-12-22T17:29:09.228Z,99.90
2018-12-22T17:31:41.097Z,99.90
2018-12-22T17:34:14.360Z,99.90
2018-12-22T17:36:47.901Z,99.90
2018-12-22T17:39:20.819Z,99.90
2018-12-22T17:41:50.408Z,99.90
2018-12-22T17:44:25.023Z,99.90
2018-12-22T17:46:57.836Z,99.90
2018-12-22T17:49:28.751Z,99.90
2018-12-22T17:52:00.688Z,99.90
2018-12-22T17:54:33.000Z,99.90
2018-12-22T17:57:12.417Z,99.90
2018-12-22T17:59:45.342Z,99.90
2018-12-22T18:02:18.213Z,99.90
2018-12-22T18:04:51.104Z,99.90
2018-12-22T18:07:24.321Z,99.90
2018-12-22T18:09:57.743Z,99.90
2018-12-22T18:12:32.017Z,99.90
2018-12-22T18:15:07.537Z,99.90
2018-12-22T18:17:40.188Z,99.90
2018-12-22T18:20:12.465Z,99.90
2018-12-22T18:22:43.289Z,99.90
2018-12-22T18:25:17.696Z,99.90
2018-12-22T18:27:50.420Z,99.90
2018-12-22T18:30:23.465Z,99.90
2018-12-22T18:32:56.184Z,99.90
2018-12-22T18:35:29.426Z,99.90
2018-12-22T18:38:04.283Z,99.90
2018-12-22T18:40:35.204Z,99.90
2018-12-22T18:43:05.900Z,99.90
2018-12-22T18:45:36.979Z,99.90
2018-12-22T18:48:10.096Z,99.90
2018-12-22T18:50:42.965Z,99.90
2018-12-22T18:53:15.300Z,99.90
2018-12-22T18:55:48.065Z,99.90
2018-12-22T18:58:20.419Z,99.90
2018-12-22T19:00:53.601Z,99.90
2018-12-22T19:03:26.266Z,99.90
2018-12-22T19:05:57.969Z,99.90
2018-12-22T19:08:31.636Z,99.90
2018-12-22T19:11:07.640Z,99.90
2018-12-22T19:13:42.273Z,99.90
2018-12-22T19:16:13.088Z,99.90
2018-12-22T19:18:44.055Z,99.90
2018-12-22T19:21:19.627Z,99.90
2018-12-22T19:23:56.532Z,99.90
2018-12-22T19:26:29.073Z,99.90
2018-12-22T19:29:02.146Z,99.90
2018-12-22T19:31:41.657Z,99.90
2018-12-22T19:34:08.265Z,99.90
2018-12-22T19:36:43.829Z,99.90
2018-12-22T19:39:16.080Z,99.90
2018-12-22T19:41:46.956Z,99.90
2018-12-22T19:44:20.017Z,99.90
2018-12-22T19:46:52.961Z,99.90
2018-12-22T19:49:26.012Z,99.90
2018-12-22T19:51:56.929Z,99.90
2018-12-22T19:54:30.199Z,99.90
2018-12-22T19:57:03.048Z,99.90
2018-12-22T19:59:36.112Z,99.90
2018-12-22T20:02:09.376Z,99.90
2018-12-22T20:04:42.436Z,99.90
2018-12-22T20:07:15.189Z,99.90
2018-12-22T20:09:51.736Z,99.90
2018-12-22T20:12:23.953Z,99.90
2018-12-22T20:14:57.044Z,99.90
2018-12-22T20:17:30.840Z,99.90
2018-12-22T20:20:01.924Z,99.90
2018-12-22T20:22:32.860Z,99.90
2018-12-22T20:25:04.154Z,99.90
2018-12-22T20:27:37.125Z,99.90
2018-12-22T20:30:10.312Z,99.90
2018-12-22T20:32:43.114Z,99.90
2018-12-22T20:35:16.040Z,99.90
2018-12-22T20:37:49.052Z,99.90
2018-12-22T20:40:21.773Z,99.90
2018-12-22T20:42:54.425Z,99.90
2018-12-22T20:45:25.222Z,99.90
2018-12-22T20:47:58.421Z,99.90
2018-12-22T20:50:29.250Z,99.90
2018-12-22T20:53:00.114Z,99.90
2018-12-22T20:55:33.236Z,99.90
2018-12-22T20:58:06.492Z,99.90
2018-12-22T21:00:39.563Z,99.90
2018-12-22T21:03:12.248Z,99.90
2018-12-22T21:05:53.190Z,99.90
2018-12-22T21:08:24.168Z,99.90
2018-12-22T21:11:04.348Z,99.90
2018-12-22T21:13:35.177Z,99.90
2018-12-22T21:16:08.402Z,99.90
2018-12-22T21:18:39.200Z,99.90
2018-12-22T21:21:12.325Z,99.90
2018-12-22T21:23:47.256Z,99.90
2018-12-22T21:26:19.565Z,99.90
2018-12-22T21:28:52.333Z,99.90
2018-12-22T21:31:24.625Z,99.90
2018-12-22T21:33:57.901Z,99.90
2018-12-22T21:36:30.584Z,99.90
2018-12-22T21:39:04.685Z,99.90
2018-12-22T21:41:37.190Z,99.90
2018-12-22T21:44:09.355Z,99.90
2018-12-22T21:46:42.359Z,99.90
2018-12-22T21:49:15.392Z,99.90
2018-12-22T21:51:48.300Z,99.90
2018-12-22T21:54:22.760Z,99.90
2018-12-22T21:56:57.771Z,99.90
2018-12-22T21:59:30.181Z,99.90
2018-12-22T22:02:02.670Z,99.90
2018-12-22T22:04:37.126Z,99.90
2018-12-22T22:07:06.744Z,99.90
2018-12-22T22:09:37.506Z,99.90
2018-12-22T22:12:11.830Z,99.90
2018-12-22T22:14:46.749Z,99.90
2018-12-22T22:17:19.292Z,99.90
2018-12-22T22:19:52.216Z,99.90
2018-12-22T22:22:25.687Z,99.90
2018-12-22T22:24:58.580Z,99.90
2018-12-22T22:27:30.687Z,99.90
2018-12-22T22:30:01.443Z,99.90
2018-12-22T22:32:33.841Z,99.90
2018-12-22T22:35:04.924Z,99.90
2018-12-22T22:37:39.317Z,99.90
2018-12-22T22:40:11.414Z,99.90
2018-12-22T22:42:43.389Z,99.90
2018-12-22T22:45:15.832Z,99.90
2018-12-22T22:47:50.453Z,99.90
2018-12-22T22:50:23.089Z,99.90
2018-12-22T22:52:55.384Z,99.90
2018-12-22T22:55:25.500Z,99.90
2018-12-22T22:57:58.128Z,99.90
2018-12-22T23:00:34.580Z,99.90
2018-12-22T23:03:05.869Z,99.90
2018-12-22T23:05:38.376Z,99.90
2018-12-22T23:08:09.273Z,99.90
2018-12-22T23:10:41.263Z,99.90
2018-12-22T23:13:13.404Z,99.90
2018-12-22T23:15:45.664Z,99.90
2018-12-22T23:18:20.653Z,99.90
2018-12-22T23:20:53.536Z,99.90
2018-12-22T23:23:25.428Z,99.90
2018-12-22T23:25:59.857Z,99.90
2018-12-22T23:28:32.217Z,99.90
2018-12-22T23:31:04.348Z,99.90
2018-12-22T23:33:36.566Z,99.90
2018-12-22T23:36:08.598Z,99.90
2018-12-22T23:38:41.472Z,99.90
2018-12-22T23:41:13.848Z,99.90
2018-12-22T23:43:45.920Z,99.90
2018-12-22T23:46:18.788Z,99.90
2018-12-22T23:48:52.097Z,99.90
2018-12-22T23:51:24.919Z,99.90
2018-12-22T23:53:55.012Z,99.90
2018-12-22T23:56:27.292Z,99.90
2018-12-22T23:59:02.004Z,99.90
